Time;durP1;ratioP1;P1;durP2;ratioP2;P2;SDS_P1;SDS_P2;PMS_P1;PMS_P2;Temp;Humidity;BMP_temperature;BMP_pressure;BME280_temperature;BME280_humidity;BME280_pressure;Samples;Min_cycle;Max_cycle;Signal;HPM_P1;HPM_P2
2022/05/23 00:02:12;;;;;;;;;;;23.50;53.00;;;;;;6188174;28;20639;-57
2022/05/23 00:05:14;;;;;;;;;;;23.90;53.20;;;;;;6191841;28;19920;-55
2022/05/23 00:08:16;;;;;;;;;;;23.70;53.10;;;;;;6188757;28;19987;-58
2022/05/23 00:11:19;;;;;;;;;;;23.80;53.20;;;;;;6194451;28;20760;-56
2022/05/23 00:14:20;;;;;;;;;;;23.90;53.20;;;;;;6172361;28;21365;-52
2022/05/23 00:17:22;;;;;;;;;;;23.40;53.10;;;;;;6194892;28;20448;-57
2022/05/23 00:20:24;;;;;;;;;;;23.40;53.10;;;;;;6195822;28;19929;-54
2022/05/23 00:23:26;;;;;;;;;;;23.90;53.40;;;;;;6184941;28;20099;-58
2022/05/23 00:26:28;;;;;;;;;;;23.50;53.20;;;;;;6188390;28;19999;-56
2022/05/23 00:29:29;;;;;;;;;;;23.60;53.20;;;;;;6192782;28;19929;-53
2022/05/23 00:35:50;;;;;;;;;;;24.00;53.50;;;;;;6166242;28;19925;-56
2022/05/23 00:38:53;;;;;;;;;;;23.80;53.40;;;;;;6186626;28;19991;-54
2022/05/23 00:45:12;;;;;;;;;;;23.50;53.40;;;;;;6186936;28;20036;-55
2022/05/23 00:48:14;;;;;;;;;;;23.60;53.50;;;;;;6187280;28;20139;-56
2022/05/23 00:51:16;;;;;;;;;;;23.70;53.50;;;;;;6174281;28;19956;-54
2022/05/23 00:54:19;;;;;;;;;;;23.50;53.50;;;;;;6190122;28;20885;-54
2022/05/23 00:57:22;;;;;;;;;;;23.70;53.60;;;;;;6188450;28;20032;-56
2022/05/23 01:00:24;;;;;;;;;;;23.80;53.70;;;;;;6182970;28;19926;-57
2022/05/23 01:03:26;;;;;;;;;;;23.90;53.80;;;;;;6188476;28;19925;-52
2022/05/23 01:06:28;;;;;;;;;;;23.60;53.60;;;;;;6186265;28;21214;-52
2022/05/23 01:09:30;;;;;;;;;;;23.80;53.80;;;;;;6187777;28;20039;-57
2022/05/23 01:12:33;;;;;;;;;;;23.60;53.70;;;;;;6186475;28;19921;-55
2022/05/23 01:15:35;;;;;;;;;;;23.70;53.80;;;;;;6174233;28;19921;-56
2022/05/23 01:18:36;;;;;;;;;;;23.40;53.60;;;;;;6185317;28;19925;-56
2022/05/23 01:21:42;;;;;;;;;;;23.70;53.80;;;;;;6191935;28;20883;-52
2022/05/23 01:24:46;;;;;;;;;;;23.60;53.70;;;;;;6191610;28;19927;-54
2022/05/23 01:27:49;;;;;;;;;;;23.70;53.80;;;;;;6189476;28;20051;-55
2022/05/23 01:30:51;;;;;;;;;;;23.40;53.70;;;;;;6189194;28;20809;-56
2022/05/23 01:33:59;;;;;;;;;;;23.70;53.90;;;;;;6185143;28;19929;-56
2022/05/23 01:37:00;;;;;;;;;;;23.50;53.80;;;;;;6187716;28;19921;-54
2022/05/23 01:40:04;;;;;;;;;;;23.70;53.90;;;;;;6189977;28;19999;-56
2022/05/23 01:43:12;;;;;;;;;;;23.40;53.80;;;;;;6189009;28;19933;-56
2022/05/23 01:46:16;;;;;;;;;;;23.70;53.90;;;;;;6187051;28;19987;-56
2022/05/23 01:49:33;;;;;;;;;;;23.60;53.90;;;;;;6184462;28;19998;-58
2022/05/23 01:52:43;;;;;;;;;;;23.50;53.90;;;;;;6188924;28;20048;-55
2022/05/23 01:55:48;;;;;;;;;;;23.40;53.80;;;;;;6188389;28;20757;-57
2022/05/23 02:02:10;;;;;;;;;;;23.40;53.90;;;;;;6176705;28;20056;-54
2022/05/23 02:05:15;;;;;;;;;;;23.60;54.00;;;;;;6191073;28;20801;-55
2022/05/23 02:08:17;;;;;;;;;;;23.60;54.00;;;;;;6187364;28;19968;-57
2022/05/23 02:11:18;;;;;;;;;;;23.70;54.10;;;;;;6181277;28;19931;-53
2022/05/23 02:14:21;;;;;;;;;;;23.50;54.00;;;;;;6197337;28;20836;-56
2022/05/23 02:17:23;;;;;;;;;;;23.30;53.90;;;;;;6190050;28;19935;-50
2022/05/23 02:20:27;;;;;;;;;;;23.70;54.20;;;;;;6180454;28;19935;-55
2022/05/23 02:23:28;;;;;;;;;;;23.60;54.10;;;;;;6188675;28;19929;-52
2022/05/23 02:26:30;;;;;;;;;;;23.60;54.20;;;;;;6189521;28;19940;-55
2022/05/23 02:29:35;;;;;;;;;;;23.60;54.10;;;;;;6190603;28;19925;-53
2022/05/23 02:32:36;;;;;;;;;;;23.40;54.10;;;;;;6194177;28;19987;-54
2022/05/23 02:35:43;;;;;;;;;;;24.00;54.40;;;;;;6188015;28;19932;-53
2022/05/23 02:38:44;;;;;;;;;;;23.50;54.10;;;;;;6185586;28;19991;-52
2022/05/23 02:41:46;;;;;;;;;;;23.50;54.20;;;;;;6182802;28;19968;-51
2022/05/23 02:44:50;;;;;;;;;;;23.30;54.20;;;;;;6180607;28;19933;-53
2022/05/23 02:47:59;;;;;;;;;;;23.30;54.10;;;;;;6180274;28;20205;-53
2022/05/23 02:51:00;;;;;;;;;;;23.20;54.10;;;;;;6180359;28;19935;-52
2022/05/23 02:54:04;;;;;;;;;;;23.40;54.20;;;;;;6181102;28;20635;-53
2022/05/23 02:57:08;;;;;;;;;;;23.10;54.00;;;;;;6182202;28;20229;-54
2022/05/23 03:00:11;;;;;;;;;;;23.50;54.30;;;;;;6180119;28;20036;-52
2022/05/23 03:03:15;;;;;;;;;;;23.20;54.10;;;;;;6184083;28;20209;-52
2022/05/23 03:06:24;;;;;;;;;;;23.20;54.20;;;;;;6190946;28;19929;-54
2022/05/23 03:09:27;;;;;;;;;;;23.20;54.20;;;;;;6183849;28;19929;-53
2022/05/23 03:12:28;;;;;;;;;;;23.50;55.00;;;;;;6179419;28;20949;-57
2022/05/23 03:15:30;;;;;;;;;;;23.10;54.20;;;;;;6183592;28;20214;-50
2022/05/23 03:18:32;;;;;;;;;;;23.60;54.40;;;;;;6182053;28;19929;-52
2022/05/23 03:28:13;;;;;;;;;;;23.10;54.20;;;;;;6191576;28;20515;-51
2022/05/23 03:31:16;;;;;;;;;;;23.40;54.40;;;;;;6186341;28;19932;-51
2022/05/23 03:34:17;;;;;;;;;;;23.10;54.20;;;;;;6185097;28;19952;-54
2022/05/23 03:37:19;;;;;;;;;;;23.30;54.40;;;;;;6180104;28;20300;-52
2022/05/23 03:40:22;;;;;;;;;;;23.70;54.50;;;;;;6185603;28;20089;-53
2022/05/23 03:43:28;;;;;;;;;;;23.20;54.30;;;;;;6179545;28;20400;-53
2022/05/23 03:46:30;;;;;;;;;;;23.00;54.30;;;;;;6187848;28;19929;-52
2022/05/23 03:49:32;;;;;;;;;;;23.50;54.50;;;;;;6186912;28;19925;-54
2022/05/23 03:52:34;;;;;;;;;;;23.00;54.30;;;;;;6163057;28;20239;-54
2022/05/23 03:55:35;;;;;;;;;;;23.40;54.50;;;;;;6178411;28;20017;-53
2022/05/23 03:58:56;;;;;;;;;;;23.40;54.60;;;;;;6180834;28;19991;-54
2022/05/23 04:02:03;;;;;;;;;;;23.30;54.50;;;;;;6180183;28;19929;-52
2022/05/23 04:05:11;;;;;;;;;;;23.00;54.40;;;;;;6195583;28;20007;-51
2022/05/23 04:08:23;;;;;;;;;;;23.50;54.60;;;;;;6174635;28;19932;-53
2022/05/23 04:11:28;;;;;;;;;;;23.50;54.70;;;;;;6176890;28;19939;-55
2022/05/23 04:14:33;;;;;;;;;;;23.10;54.50;;;;;;6177843;28;19929;-52
2022/05/23 04:17:36;;;;;;;;;;;23.40;54.60;;;;;;6176513;28;20822;-53
2022/05/23 04:20:37;;;;;;;;;;;23.40;54.60;;;;;;6183260;28;20133;-56
2022/05/23 04:23:43;;;;;;;;;;;23.40;54.70;;;;;;6175817;28;19924;-56
2022/05/23 04:26:50;;;;;;;;;;;23.30;54.60;;;;;;6177403;28;20057;-53
2022/05/23 04:29:56;;;;;;;;;;;23.50;54.70;;;;;;6177465;28;19925;-56
2022/05/23 04:36:23;;;;;;;;;;;23.10;54.60;;;;;;6174397;28;19929;-53
2022/05/23 04:39:25;;;;;;;;;;;23.30;54.70;;;;;;6172988;28;19929;-51
2022/05/23 04:42:26;;;;;;;;;;;23.10;54.60;;;;;;6178766;28;20251;-55
2022/05/23 04:45:27;;;;;;;;;;;23.30;54.80;;;;;;6153471;28;19929;-53
2022/05/23 04:52:01;;;;;;;;;;;23.20;55.30;;;;;;6169149;28;20730;-55
2022/05/23 04:55:10;;;;;;;;;;;22.90;54.50;;;;;;6170749;28;20250;-51
2022/05/23 04:58:13;;;;;;;;;;;23.00;54.50;;;;;;6171297;28;19929;-53
2022/05/23 05:01:14;;;;;;;;;;;23.30;54.70;;;;;;6177776;28;19929;-53
2022/05/23 05:04:16;;;;;;;;;;;23.10;54.60;;;;;;6174690;28;20267;-52
2022/05/23 05:07:18;;;;;;;;;;;23.20;54.60;;;;;;6150022;28;20993;-51
2022/05/23 05:10:21;;;;;;;;;;;23.10;54.60;;;;;;6136422;28;20476;-53
2022/05/23 05:13:23;;;;;;;;;;;23.30;54.60;;;;;;6167804;28;19936;-52
2022/05/23 05:16:25;;;;;;;;;;;23.00;54.60;;;;;;6182431;28;20003;-54
2022/05/23 05:19:34;;;;;;;;;;;23.20;54.70;;;;;;6185333;28;19936;-52
2022/05/23 05:22:55;;;;;;;;;;;23.10;54.60;;;;;;6173041;28;20337;-54
2022/05/23 05:26:17;;;;;;;;;;;23.00;54.60;;;;;;6164077;28;20035;-52
2022/05/23 05:29:18;;;;;;;;;;;23.20;54.60;;;;;;6145816;28;20648;-54
2022/05/23 05:32:26;;;;;;;;;;;23.10;54.60;;;;;;6167136;28;21509;-53
2022/05/23 05:35:31;;;;;;;;;;;23.00;54.50;;;;;;6156301;28;19929;-54
2022/05/23 05:38:34;;;;;;;;;;;23.00;54.50;;;;;;6156919;28;19968;-51
2022/05/23 05:41:40;;;;;;;;;;;23.20;54.60;;;;;;6152153;28;20282;-53
2022/05/23 05:44:42;;;;;;;;;;;23.10;54.60;;;;;;6157047;28;20184;-54
2022/05/23 05:47:45;;;;;;;;;;;22.90;54.50;;;;;;6153589;28;20047;-53
2022/05/23 05:50:48;;;;;;;;;;;23.30;55.30;;;;;;6132938;28;21882;-52
2022/05/23 05:53:52;;;;;;;;;;;23.10;54.60;;;;;;6100584;28;20487;-53
2022/05/23 05:57:08;;;;;;;;;;;23.00;54.50;;;;;;6162475;28;19929;-53
2022/05/23 06:00:12;;;;;;;;;;;23.20;54.60;;;;;;6156400;28;21714;-51
2022/05/23 06:03:28;;;;;;;;;;;23.00;54.50;;;;;;6150405;28;21035;-55
2022/05/23 06:13:24;;;;;;;;;;;23.20;54.50;;;;;;6162080;28;19936;-54
2022/05/23 06:16:45;;;;;;;;;;;23.30;54.60;;;;;;6158628;28;21113;-56
2022/05/23 06:19:53;;;;;;;;;;;23.30;54.60;;;;;;6171653;28;19929;-53
2022/05/23 06:22:58;;;;;;;;;;;23.30;54.60;;;;;;6165754;28;20912;-56
2022/05/23 06:26:00;;;;;;;;;;;23.10;54.40;;;;;;6143978;28;19936;-54
2022/05/23 06:29:21;;;;;;;;;;;23.40;54.60;;;;;;6151460;28;19932;-55
2022/05/23 06:32:23;;;;;;;;;;;23.10;54.40;;;;;;6155564;28;19975;-53
2022/05/23 06:35:24;;;;;;;;;;;23.10;54.40;;;;;;6140398;28;19964;-53
2022/05/23 06:38:28;;;;;;;;;;;23.20;54.40;;;;;;6128288;28;21777;-55
2022/05/23 06:41:45;;;;;;;;;;;23.20;54.40;;;;;;6149667;28;19929;-53
2022/05/23 06:45:07;;;;;;;;;;;23.40;54.50;;;;;;6129404;28;19933;-54
2022/05/23 06:48:23;;;;;;;;;;;23.10;54.30;;;;;;6111262;28;21413;-54
2022/05/23 06:51:33;;;;;;;;;;;23.30;54.50;;;;;;6123671;28;23483;-54
2022/05/23 06:54:36;;;;;;;;;;;23.40;54.50;;;;;;6110124;28;27126;-50
2022/05/23 06:57:40;;;;;;;;;;;23.20;54.40;;;;;;6096532;28;21357;-54
2022/05/23 07:00:41;;;;;;;;;;;23.20;54.40;;;;;;6086097;28;19929;-57
2022/05/23 07:03:48;;;;;;;;;;;23.00;54.30;;;;;;6062987;28;23738;-56
2022/05/23 07:13:28;;;;;;;;;;;23.10;54.50;;;;;;6028072;28;19936;-55
2022/05/23 07:16:31;;;;;;;;;;;23.20;54.40;;;;;;6039235;28;19929;-58
2022/05/23 07:19:34;;;;;;;;;;;23.30;54.40;;;;;;6058219;28;21039;-58
2022/05/23 07:22:42;;;;;;;;;;;23.50;54.40;;;;;;6012390;28;20822;-60
2022/05/23 07:25:44;;;;;;;;;;;23.10;54.30;;;;;;6038704;28;19928;-60
2022/05/23 07:29:00;;;;;;;;;;;23.30;54.40;;;;;;6020918;28;20019;-60
2022/05/23 07:32:05;;;;;;;;;;;23.10;54.30;;;;;;6004964;28;19932;-59
2022/05/23 07:35:10;;;;;;;;;;;23.00;54.10;;;;;;6029221;28;19963;-56
2022/05/23 07:38:12;;;;;;;;;;;23.30;54.20;;;;;;6041588;28;19937;-58
2022/05/23 07:41:16;;;;;;;;;;;22.90;54.00;;;;;;6034490;28;19936;-56
2022/05/23 07:44:19;;;;;;;;;;;23.10;53.90;;;;;;6029350;28;20210;-57
2022/05/23 07:47:20;;;;;;;;;;;23.50;54.30;;;;;;6024974;28;20042;-59
2022/05/23 07:50:43;;;;;;;;;;;23.40;54.30;;;;;;6065978;28;19928;-54
2022/05/23 08:03:40;;;;;;;;;;;23.60;54.20;;;;;;6028845;28;20019;-53
2022/05/23 08:06:51;;;;;;;;;;;23.40;54.10;;;;;;6024988;28;19936;-53
2022/05/23 08:09:54;;;;;;;;;;;23.20;54.00;;;;;;6020407;28;21549;-55
2022/05/23 08:12:57;;;;;;;;;;;23.70;54.20;;;;;;6019399;28;20654;-52
2022/05/23 08:15:59;;;;;;;;;;;23.50;54.00;;;;;;6013963;28;19932;-56
2022/05/23 08:19:02;;;;;;;;;;;23.50;54.10;;;;;;6042357;28;20448;-51
2022/05/23 08:22:04;;;;;;;;;;;23.50;54.00;;;;;;6048097;28;20059;-55
2022/05/23 08:25:07;;;;;;;;;;;23.60;54.10;;;;;;6053164;28;19936;-51
2022/05/23 08:28:11;;;;;;;;;;;23.40;53.90;;;;;;6055914;28;21335;-51
2022/05/23 08:31:14;;;;;;;;;;;23.90;54.20;;;;;;6046614;28;21121;-56
2022/05/23 08:34:22;;;;;;;;;;;23.60;54.60;;;;;;6031079;28;19935;-54
2022/05/23 08:37:23;;;;;;;;;;;23.60;54.00;;;;;;6051699;28;20138;-52
2022/05/23 08:40:32;;;;;;;;;;;23.60;54.00;;;;;;6054491;28;19932;-56
2022/05/23 08:43:40;;;;;;;;;;;23.40;53.90;;;;;;6042767;28;19929;-52
2022/05/23 08:46:46;;;;;;;;;;;23.50;53.90;;;;;;6014569;28;19929;-50
2022/05/23 08:49:55;;;;;;;;;;;23.70;54.00;;;;;;6010046;28;20015;-52
2022/05/23 08:52:59;;;;;;;;;;;23.70;53.90;;;;;;6041540;28;21243;-56
2022/05/23 08:56:13;;;;;;;;;;;23.70;54.00;;;;;;6040020;28;22590;-54
2022/05/23 08:59:26;;;;;;;;;;;23.70;53.90;;;;;;6024806;28;21509;-58
2022/05/23 09:02:34;;;;;;;;;;;23.50;54.40;;;;;;5998673;28;29399;-53
2022/05/23 09:05:44;;;;;;;;;;;23.70;53.90;;;;;;5989289;28;25643;-53
2022/05/23 09:09:07;;;;;;;;;;;23.60;53.80;;;;;;5995743;28;20215;-57
2022/05/23 09:12:11;;;;;;;;;;;23.70;53.90;;;;;;6023046;28;25335;-53
2022/05/23 09:15:17;;;;;;;;;;;23.70;53.90;;;;;;6033436;28;20048;-53
2022/05/23 09:25:05;;;;;;;;;;;23.70;53.90;;;;;;6048262;28;20000;-54
2022/05/23 09:28:12;;;;;;;;;;;23.70;53.80;;;;;;6041992;28;19929;-55
2022/05/23 09:31:18;;;;;;;;;;;23.70;53.80;;;;;;6037482;28;20018;-57
2022/05/23 09:34:28;;;;;;;;;;;23.70;53.90;;;;;;6020573;28;21288;-55
2022/05/23 09:37:36;;;;;;;;;;;23.70;53.80;;;;;;5998100;28;22543;-58
2022/05/23 09:40:40;;;;;;;;;;;23.60;53.80;;;;;;6029199;28;22219;-58
2022/05/23 09:50:29;;;;;;;;;;;23.60;53.70;;;;;;6007222;28;19928;-57
2022/05/23 09:53:45;;;;;;;;;;;23.60;53.90;;;;;;5991091;28;30585;-55
2022/05/23 09:56:47;;;;;;;;;;;23.70;54.40;;;;;;6020898;28;24694;-57
2022/05/23 09:59:54;;;;;;;;;;;23.90;53.80;;;;;;6039204;28;19929;-54
2022/05/23 10:03:01;;;;;;;;;;;23.80;53.70;;;;;;6000251;28;28306;-57
2022/05/23 10:06:05;;;;;;;;;;;23.90;53.80;;;;;;6018990;28;21418;-54
2022/05/23 10:09:07;;;;;;;;;;;23.80;53.70;;;;;;6004130;28;23471;-55
2022/05/23 10:12:25;;;;;;;;;;;23.90;53.80;;;;;;6016274;28;19928;-53
2022/05/23 10:15:29;;;;;;;;;;;24.50;54.10;;;;;;6041160;28;19929;-57
2022/05/23 10:18:32;;;;;;;;;;;23.80;53.70;;;;;;6031073;28;19941;-53
2022/05/23 10:21:37;;;;;;;;;;;23.80;53.70;;;;;;6020429;28;19929;-53
2022/05/23 10:24:44;;;;;;;;;;;23.70;53.60;;;;;;6053634;28;19999;-54
2022/05/23 10:27:53;;;;;;;;;;;23.80;53.60;;;;;;6049548;28;22635;-54
2022/05/23 10:30:57;;;;;;;;;;;23.90;53.80;;;;;;6051502;28;21009;-56
2022/05/23 10:34:04;;;;;;;;;;;23.90;53.70;;;;;;6050932;28;19929;-54
2022/05/23 10:37:07;;;;;;;;;;;23.90;53.70;;;;;;6043428;28;21526;-54
2022/05/23 10:43:24;;;;;;;;;;;23.80;53.60;;;;;;6055447;28;20834;-57
2022/05/23 10:46:26;;;;;;;;;;;24.10;53.80;;;;;;6056853;28;20010;-56
2022/05/23 10:49:33;;;;;;;;;;;23.70;53.60;;;;;;6051277;28;20016;-54
2022/05/23 10:52:39;;;;;;;;;;;23.80;53.60;;;;;;6075302;28;20878;-54
2022/05/23 10:55:44;;;;;;;;;;;24.00;53.70;;;;;;6066763;28;19936;-53
2022/05/23 10:58:51;;;;;;;;;;;24.00;53.80;;;;;;6039329;28;19929;-57
2022/05/23 11:01:56;;;;;;;;;;;24.00;53.70;;;;;;6067892;28;19933;-56
2022/05/23 11:05:02;;;;;;;;;;;24.00;53.70;;;;;;6059278;28;22455;-58
2022/05/23 11:08:12;;;;;;;;;;;24.00;53.70;;;;;;6086489;28;19929;-53
2022/05/23 11:11:29;;;;;;;;;;;24.20;54.40;;;;;;6077369;28;20127;-54
2022/05/23 11:14:38;;;;;;;;;;;23.90;53.60;;;;;;6076537;28;19947;-58
2022/05/23 11:17:45;;;;;;;;;;;24.10;53.70;;;;;;6057809;28;19929;-56
2022/05/23 11:20:50;;;;;;;;;;;24.00;53.60;;;;;;6073707;28;20109;-57
2022/05/23 11:23:53;;;;;;;;;;;24.00;53.60;;;;;;6083150;28;20466;-56
2022/05/23 11:33:41;;;;;;;;;;;23.80;53.50;;;;;;6069464;28;20056;-55
2022/05/23 11:33:46;;;;;;;;;;;24.10;53.60;;;;;;6057740;28;19940;-54
2022/05/23 11:40:44;;;;;;;;;;;24.00;53.50;;;;;;6072259;28;19929;-53
2022/05/23 11:43:45;;;;;;;;;;;24.20;53.70;;;;;;6054667;28;20479;-57
2022/05/23 11:47:02;;;;;;;;;;;24.10;53.60;;;;;;6049674;28;19936;-53
2022/05/23 11:50:15;;;;;;;;;;;24.00;53.50;;;;;;6048048;28;19929;-52
2022/05/23 11:53:22;;;;;;;;;;;24.10;53.40;;;;;;6032911;28;20052;-51
2022/05/23 11:56:35;;;;;;;;;;;24.10;53.40;;;;;;6032314;28;19952;-55
2022/05/23 12:00:25;;;;;;;;;;;24.20;53.50;;;;;;6003918;28;19929;-52
2022/05/23 12:03:27;;;;;;;;;;;24.20;53.50;;;;;;5934810;28;19929;-53
2022/05/23 12:06:38;;;;;;;;;;;24.10;53.40;;;;;;5947099;28;21507;-55
2022/05/23 12:09:40;;;;;;;;;;;24.60;53.70;;;;;;5936990;28;21796;-53
2022/05/23 12:12:46;;;;;;;;;;;24.20;53.40;;;;;;5993564;28;19929;-53
2022/05/23 12:15:49;;;;;;;;;;;24.20;53.40;;;;;;5991447;28;19928;-51
2022/05/23 12:19:06;;;;;;;;;;;24.20;53.30;;;;;;5974137;28;21339;-51
2022/05/23 12:22:18;;;;;;;;;;;24.20;53.30;;;;;;5974388;28;19933;-51
2022/05/23 12:25:23;;;;;;;;;;;24.10;53.30;;;;;;5993804;28;19929;-51
2022/05/23 12:28:25;;;;;;;;;;;24.00;53.20;;;;;;5954175;28;19936;-51
2022/05/23 12:31:28;;;;;;;;;;;24.20;53.30;;;;;;5984094;28;19933;-53
2022/05/23 12:34:31;;;;;;;;;;;24.10;53.10;;;;;;5965503;28;19936;-52
2022/05/23 12:37:33;;;;;;;;;;;24.20;53.20;;;;;;5980106;28;20038;-53
2022/05/23 12:40:39;;;;;;;;;;;24.10;53.00;;;;;;5982925;28;19971;-55
2022/05/23 12:43:50;;;;;;;;;;;24.30;53.70;;;;;;5987224;28;20102;-53
2022/05/23 12:47:01;;;;;;;;;;;24.10;53.60;;;;;;5976628;28;19929;-51
2022/05/23 12:50:07;;;;;;;;;;;24.30;53.10;;;;;;5993290;28;20474;-51
2022/05/23 12:53:16;;;;;;;;;;;24.30;53.10;;;;;;5978160;28;20015;-55
2022/05/23 12:56:28;;;;;;;;;;;24.50;53.10;;;;;;5986545;28;19929;-51
2022/05/23 12:59:42;;;;;;;;;;;24.40;53.10;;;;;;5970787;28;20297;-55
2022/05/23 13:02:46;;;;;;;;;;;24.40;53.00;;;;;;5968197;28;19970;-55
2022/05/23 13:05:52;;;;;;;;;;;24.40;53.00;;;;;;5961803;28;19972;-55
2022/05/23 13:09:00;;;;;;;;;;;24.40;53.40;;;;;;5963755;28;22342;-55
2022/05/23 13:12:05;;;;;;;;;;;24.30;53.00;;;;;;5982581;28;21600;-56
2022/05/23 13:15:08;;;;;;;;;;;24.40;53.00;;;;;;5954119;28;19929;-57
2022/05/23 13:25:00;;;;;;;;;;;24.40;53.00;;;;;;6003447;28;20134;-56
2022/05/23 13:28:08;;;;;;;;;;;24.20;52.80;;;;;;5986417;28;19929;-57
2022/05/23 13:31:22;;;;;;;;;;;24.50;53.30;;;;;;5979190;28;19976;-57
2022/05/23 13:34:23;;;;;;;;;;;24.40;52.80;;;;;;5984589;28;21262;-56
2022/05/23 13:37:27;;;;;;;;;;;24.50;52.90;;;;;;5966871;28;19936;-55
2022/05/23 13:40:29;;;;;;;;;;;24.40;52.80;;;;;;5983851;28;19928;-57
2022/05/23 13:43:42;;;;;;;;;;;24.40;52.90;;;;;;5947908;28;19929;-52
2022/05/23 13:46:44;;;;;;;;;;;24.40;52.80;;;;;;5923599;28;20078;-57
2022/05/23 13:49:48;;;;;;;;;;;24.70;52.90;;;;;;5953188;28;23447;-58
2022/05/23 13:52:52;;;;;;;;;;;24.40;52.70;;;;;;5991558;28;21200;-55
2022/05/23 13:55:54;;;;;;;;;;;24.50;52.70;;;;;;5955295;28;20003;-58
2022/05/23 13:58:58;;;;;;;;;;;24.40;52.70;;;;;;5953680;28;19936;-58
2022/05/23 14:02:02;;;;;;;;;;;24.50;52.80;;;;;;5915287;28;21956;-55
2022/05/23 14:05:04;;;;;;;;;;;24.50;52.70;;;;;;5892564;28;19929;-50
2022/05/23 14:08:06;;;;;;;;;;;24.70;52.80;;;;;;5941832;28;19935;-53
2022/05/23 14:11:09;;;;;;;;;;;24.70;52.70;;;;;;5980525;28;19929;-49
2022/05/23 14:14:14;;;;;;;;;;;24.30;52.50;;;;;;5963055;28;19999;-54
2022/05/23 14:17:17;;;;;;;;;;;24.20;53.10;;;;;;5949656;28;19928;-53
2022/05/23 14:20:23;;;;;;;;;;;24.50;52.60;;;;;;5945546;28;20347;-52
2022/05/23 14:23:26;;;;;;;;;;;24.50;52.50;;;;;;5965150;28;19933;-54
2022/05/23 14:26:28;;;;;;;;;;;24.50;52.60;;;;;;5960327;28;20518;-55
2022/05/23 14:29:30;;;;;;;;;;;24.50;52.50;;;;;;6000929;28;19936;-50
2022/05/23 14:32:31;;;;;;;;;;;24.40;52.40;;;;;;5927988;28;19939;-54
2022/05/23 14:35:35;;;;;;;;;;;24.50;52.60;;;;;;5932837;28;19929;-50
2022/05/23 14:38:38;;;;;;;;;;;24.50;52.60;;;;;;5884287;28;21505;-51
2022/05/23 14:41:40;;;;;;;;;;;24.40;52.60;;;;;;5943060;28;20552;-56
2022/05/23 14:44:45;;;;;;;;;;;24.30;52.50;;;;;;5997449;28;20055;-55
2022/05/23 14:47:55;;;;;;;;;;;24.20;52.50;;;;;;5973231;28;19936;-53
2022/05/23 14:51:07;;;;;;;;;;;24.40;52.70;;;;;;5959255;28;20059;-51
2022/05/23 15:00:51;;;;;;;;;;;24.30;52.70;;;;;;5932443;28;20071;-50
2022/05/23 15:03:54;;;;;;;;;;;24.30;52.70;;;;;;5952767;28;21336;-52
2022/05/23 15:06:56;;;;;;;;;;;24.30;52.70;;;;;;5965461;28;20047;-54
2022/05/23 15:09:58;;;;;;;;;;;24.40;52.80;;;;;;5949114;28;19937;-54
2022/05/23 15:13:00;;;;;;;;;;;24.30;52.70;;;;;;5997157;28;19987;-54
2022/05/23 15:16:02;;;;;;;;;;;24.30;52.80;;;;;;5983054;28;20175;-55
2022/05/23 15:19:04;;;;;;;;;;;24.40;52.80;;;;;;6003862;28;20879;-50
2022/05/23 15:22:11;;;;;;;;;;;24.10;52.60;;;;;;6002276;28;19929;-54
2022/05/23 15:25:18;;;;;;;;;;;24.20;52.70;;;;;;6049106;28;21385;-50
2022/05/23 15:28:19;;;;;;;;;;;24.20;52.60;;;;;;6019783;28;19987;-55
2022/05/23 15:31:23;;;;;;;;;;;24.30;52.80;;;;;;6004028;28;19937;-51
2022/05/23 15:34:25;;;;;;;;;;;24.20;52.70;;;;;;6025175;28;19929;-54
2022/05/23 15:37:27;;;;;;;;;;;24.10;52.60;;;;;;6012437;28;20060;-58
2022/05/23 15:40:30;;;;;;;;;;;24.20;52.70;;;;;;6041426;28;20055;-55
2022/05/23 15:43:31;;;;;;;;;;;24.20;52.70;;;;;;6053020;28;19968;-52
2022/05/23 15:46:33;;;;;;;;;;;24.30;52.70;;;;;;6003333;28;20014;-52
2022/05/23 15:49:35;;;;;;;;;;;24.30;52.70;;;;;;6030726;28;19929;-49
2022/05/23 15:52:37;;;;;;;;;;;24.20;52.70;;;;;;6043244;28;19929;-54
2022/05/23 15:55:41;;;;;;;;;;;24.40;52.80;;;;;;6046429;28;21210;-51
2022/05/23 15:58:42;;;;;;;;;;;24.20;52.70;;;;;;6032643;28;19935;-52
2022/05/23 16:01:45;;;;;;;;;;;24.20;52.80;;;;;;6050020;28;19930;-52
2022/05/23 16:04:47;;;;;;;;;;;24.20;52.80;;;;;;6041840;28;21294;-49
2022/05/23 16:07:50;;;;;;;;;;;24.20;52.80;;;;;;6051652;28;19935;-52
2022/05/23 16:10:54;;;;;;;;;;;24.20;52.80;;;;;;6058867;28;19933;-55
2022/05/23 16:13:58;;;;;;;;;;;24.10;52.70;;;;;;6089410;28;21051;-52
2022/05/23 16:17:02;;;;;;;;;;;24.30;52.80;;;;;;6069016;28;19935;-51
2022/05/23 16:20:04;;;;;;;;;;;24.20;52.90;;;;;;6086716;28;19941;-55
2022/05/23 16:23:09;;;;;;;;;;;24.20;52.80;;;;;;6089018;28;21439;-51
2022/05/23 16:26:10;;;;;;;;;;;24.20;52.80;;;;;;6104853;28;20003;-54
2022/05/23 16:29:12;;;;;;;;;;;24.20;52.90;;;;;;6115256;28;19940;-50
2022/05/23 16:38:44;;;;;;;;;;;24.20;52.80;;;;;;6096557;28;20649;-55
2022/05/23 16:41:47;;;;;;;;;;;24.10;52.80;;;;;;6117859;28;19937;-55
2022/05/23 16:44:48;;;;;;;;;;;24.10;52.80;;;;;;6137148;28;20063;-55
2022/05/23 16:47:51;;;;;;;;;;;24.20;53.00;;;;;;6128743;28;20379;-57
2022/05/23 16:50:53;;;;;;;;;;;24.10;52.80;;;;;;6133593;28;19929;-52
2022/05/23 16:53:55;;;;;;;;;;;24.10;52.80;;;;;;6136227;28;20379;-50
2022/05/23 16:56:56;;;;;;;;;;;23.90;52.70;;;;;;6141780;28;20081;-55
2022/05/23 16:59:57;;;;;;;;;;;24.10;52.80;;;;;;6131592;28;19986;-53
2022/05/23 17:03:01;;;;;;;;;;;24.10;52.80;;;;;;6143850;28;21000;-53
2022/05/23 17:06:02;;;;;;;;;;;24.30;53.00;;;;;;6131511;28;19935;-52
2022/05/23 17:09:04;;;;;;;;;;;23.90;52.70;;;;;;6122916;28;19968;-56
2022/05/23 17:12:06;;;;;;;;;;;24.00;52.80;;;;;;6154840;28;20055;-53
2022/05/23 17:15:09;;;;;;;;;;;24.10;53.00;;;;;;6157234;28;19943;-53
2022/05/23 17:18:11;;;;;;;;;;;24.00;52.80;;;;;;6158111;28;20066;-52
2022/05/23 17:21:15;;;;;;;;;;;24.10;52.90;;;;;;6154561;28;20844;-54
2022/05/23 17:24:17;;;;;;;;;;;24.10;52.90;;;;;;6160997;28;20003;-51
2022/05/23 17:27:18;;;;;;;;;;;24.20;53.00;;;;;;6158798;28;20787;-55
2022/05/23 17:30:20;;;;;;;;;;;23.80;52.70;;;;;;6157489;28;19928;-53
2022/05/23 17:33:23;;;;;;;;;;;24.20;53.00;;;;;;6162102;28;20866;-55
2022/05/23 17:36:25;;;;;;;;;;;24.50;53.10;;;;;;6155355;28;19932;-55
2022/05/23 17:39:30;;;;;;;;;;;24.10;52.90;;;;;;6160077;28;20018;-56
2022/05/23 17:42:32;;;;;;;;;;;23.80;52.80;;;;;;6164736;28;20865;-56
2022/05/23 17:45:33;;;;;;;;;;;24.20;53.00;;;;;;6167931;28;20215;-54
2022/05/23 17:48:39;;;;;;;;;;;23.80;52.80;;;;;;6150680;28;20071;-52
2022/05/23 17:51:40;;;;;;;;;;;24.20;53.10;;;;;;6147872;28;20561;-52
2022/05/23 17:54:41;;;;;;;;;;;24.00;53.00;;;;;;6148823;28;20351;-54
2022/05/23 17:57:44;;;;;;;;;;;23.80;52.90;;;;;;6153264;28;19984;-50
2022/05/23 18:00:45;;;;;;;;;;;24.00;53.00;;;;;;6153231;28;20344;-53
2022/05/23 18:03:47;;;;;;;;;;;23.80;53.00;;;;;;6155160;28;20103;-53
2022/05/23 18:06:49;;;;;;;;;;;24.10;53.10;;;;;;6160115;28;19975;-56
2022/05/23 18:09:50;;;;;;;;;;;24.00;53.10;;;;;;6151241;28;20483;-53
2022/05/23 18:12:52;;;;;;;;;;;23.90;53.00;;;;;;6157688;28;20112;-50
2022/05/23 18:19:12;;;;;;;;;;;23.80;53.10;;;;;;6154930;28;20781;-55
2022/05/23 18:22:13;;;;;;;;;;;23.80;53.10;;;;;;6159406;28;20110;-53
2022/05/23 18:25:16;;;;;;;;;;;23.60;53.00;;;;;;6154154;28;20570;-51
2022/05/23 18:28:18;;;;;;;;;;;23.70;53.10;;;;;;6146924;28;19929;-51
2022/05/23 18:31:20;;;;;;;;;;;23.90;53.20;;;;;;6178572;28;20866;-53
2022/05/23 18:34:22;;;;;;;;;;;23.80;53.20;;;;;;6178608;28;19929;-51
2022/05/23 18:37:24;;;;;;;;;;;23.80;53.20;;;;;;6169769;28;19921;-52
2022/05/23 18:40:26;;;;;;;;;;;23.80;53.20;;;;;;6176193;28;21710;-54
2022/05/23 18:43:27;;;;;;;;;;;23.80;53.80;;;;;;6159200;28;20821;-52
2022/05/23 18:46:29;;;;;;;;;;;23.70;53.20;;;;;;6183004;28;19927;-56
2022/05/23 18:52:48;;;;;;;;;;;23.50;53.10;;;;;;6165153;28;22252;-55
2022/05/23 18:55:53;;;;;;;;;;;23.90;53.30;;;;;;6179838;28;19929;-52
2022/05/23 18:58:55;;;;;;;;;;;23.70;53.20;;;;;;6156300;28;19929;-54
2022/05/23 19:01:59;;;;;;;;;;;23.70;53.20;;;;;;6176572;28;20807;-55
2022/05/23 19:05:01;;;;;;;;;;;23.60;53.10;;;;;;6169908;28;19935;-55
2022/05/23 19:08:03;;;;;;;;;;;23.60;53.10;;;;;;6169130;28;19976;-54
2022/05/23 19:11:04;;;;;;;;;;;23.60;53.10;;;;;;6160900;28;20313;-53
2022/05/23 19:14:29;;;;;;;;;;;23.60;53.10;;;;;;6154896;28;21576;-52
2022/05/23 19:17:31;;;;;;;;;;;23.40;53.00;;;;;;6171223;28;19920;-56
2022/05/23 19:20:39;;;;;;;;;;;23.70;53.20;;;;;;6179429;28;19929;-52
2022/05/23 19:23:41;;;;;;;;;;;23.70;53.10;;;;;;6179780;28;20826;-55
2022/05/23 19:26:42;;;;;;;;;;;24.00;53.30;;;;;;6168080;28;19968;-53
2022/05/23 19:29:45;;;;;;;;;;;23.40;53.10;;;;;;6179281;28;19925;-51
2022/05/23 19:32:46;;;;;;;;;;;23.70;53.20;;;;;;6181861;28;19932;-54